DBBB/COO METAR and TAF weather

Enter ICAO airport designator
Station Type Date Time Source
DBBB METAR 2022/11/27 08:00 UTC NOAA

DBBB 270800Z 27004KT 200V340 8000 SCT010 29/25 Q1010 NOSIG


Station Type Date Time Source
DBBB Decoded METAR 2022/11/27 08:00 UTC NOAA

Cotonou, Benin (DBBB) 06-21N 002-23E 9M
Nov 27, 2022 - 03:00 AM EST / 2022.11.27 0800 UTC
Wind: from the W (270 degrees) at 5 MPH (4 KT) (direction variable):0
Visibility: 4 mile(s):0
Sky conditions: partly cloudy
Temperature: 84 F (29 C)
Dew Point: 77 F (25 C)
Relative Humidity: 79%
Pressure (altimeter): 29.83 in. Hg (1010 hPa)
ob: DBBB 270800Z 27004KT 200V340 8000 SCT010 29/25 Q1010 NOSIG
cycle: 8

Station Type Date Time Source
DBBB TAF 2022/11/27 06:18 UTC NOAA

TAF TAF DBBB 270500Z 2706/2812 27005KT 9999 SCT012
BECMG 2708/2710 20010KT PROB40
TEMPO 2718/2724 4000 TSRA BKN012 FEW020CB

Example: see airport list